sensor_id;sensor_type;location;lat;lon;timestamp;P1;durP1;ratioP1;P2;durP2;ratioP2
18520;SDS011;9390;51.244;6.982;2023-04-03T00:00:50;23.75;;;11.48;;
18520;SDS011;9390;51.244;6.982;2023-04-03T00:03:23;18.80;;;11.43;;
18520;SDS011;9390;51.244;6.982;2023-04-03T00:05:55;22.70;;;11.23;;
18520;SDS011;9390;51.244;6.982;2023-04-03T00:08:26;19.83;;;11.55;;
18520;SDS011;9390;51.244;6.982;2023-04-03T00:11:00;21.20;;;11.38;;
18520;SDS011;9390;51.244;6.982;2023-04-03T00:13:32;25.63;;;13.38;;
18520;SDS011;9390;51.244;6.982;2023-04-03T00:16:04;25.38;;;13.50;;
18520;SDS011;9390;51.244;6.982;2023-04-03T00:18:37;27.80;;;13.93;;
18520;SDS011;9390;51.244;6.982;2023-04-03T00:21:09;27.85;;;13.70;;
18520;SDS011;9390;51.244;6.982;2023-04-03T00:23:43;27.17;;;13.10;;
18520;SDS011;9390;51.244;6.982;2023-04-03T00:26:14;23.65;;;13.10;;
18520;SDS011;9390;51.244;6.982;2023-04-03T00:28:45;26.75;;;12.90;;
18520;SDS011;9390;51.244;6.982;2023-04-03T00:31:17;23.88;;;13.57;;
18520;SDS011;9390;51.244;6.982;2023-04-03T00:36:22;24.60;;;13.27;;
18520;SDS011;9390;51.244;6.982;2023-04-03T00:38:54;27.95;;;13.13;;
18520;SDS011;9390;51.244;6.982;2023-04-03T00:41:25;27.45;;;14.50;;
18520;SDS011;9390;51.244;6.982;2023-04-03T00:43:57;19.02;;;12.13;;
18520;SDS011;9390;51.244;6.982;2023-04-03T00:46:28;20.65;;;11.77;;
18520;SDS011;9390;51.244;6.982;2023-04-03T00:49:01;26.40;;;12.48;;
18520;SDS011;9390;51.244;6.982;2023-04-03T00:51:32;23.67;;;12.23;;
18520;SDS011;9390;51.244;6.982;2023-04-03T00:54:04;21.88;;;12.35;;
18520;SDS011;9390;51.244;6.982;2023-04-03T00:56:36;21.17;;;11.15;;
18520;SDS011;9390;51.244;6.982;2023-04-03T00:59:10;18.65;;;11.18;;
18520;SDS011;9390;51.244;6.982;2023-04-03T01:01:43;21.60;;;11.40;;
18520;SDS011;9390;51.244;6.982;2023-04-03T01:04:27;19.33;;;11.05;;
18520;SDS011;9390;51.244;6.982;2023-04-03T01:06:59;23.02;;;11.55;;
18520;SDS011;9390;51.244;6.982;2023-04-03T01:12:13;20.02;;;10.88;;
18520;SDS011;9390;51.244;6.982;2023-04-03T01:14:48;20.05;;;11.07;;
18520;SDS011;9390;51.244;6.982;2023-04-03T01:17:27;18.63;;;10.85;;
18520;SDS011;9390;51.244;6.982;2023-04-03T01:23:17;19.15;;;9.93;;
18520;SDS011;9390;51.244;6.982;2023-04-03T01:25:58;15.90;;;9.90;;
18520;SDS011;9390;51.244;6.982;2023-04-03T01:28:30;21.98;;;10.77;;
18520;SDS011;9390;51.244;6.982;2023-04-03T01:31:06;19.95;;;9.73;;
18520;SDS011;9390;51.244;6.982;2023-04-03T01:33:43;17.13;;;9.57;;
18520;SDS011;9390;51.244;6.982;2023-04-03T01:36:15;17.52;;;8.85;;
18520;SDS011;9390;51.244;6.982;2023-04-03T01:38:48;18.67;;;10.20;;
18520;SDS011;9390;51.244;6.982;2023-04-03T01:41:20;21.65;;;9.80;;
18520;SDS011;9390;51.244;6.982;2023-04-03T01:43:51;18.92;;;9.50;;
18520;SDS011;9390;51.244;6.982;2023-04-03T01:46:23;17.25;;;8.85;;
18520;SDS011;9390;51.244;6.982;2023-04-03T01:48:55;17.55;;;9.15;;
18520;SDS011;9390;51.244;6.982;2023-04-03T01:51:27;16.92;;;9.15;;
18520;SDS011;9390;51.244;6.982;2023-04-03T01:53:58;16.88;;;8.77;;
18520;SDS011;9390;51.244;6.982;2023-04-03T01:56:30;14.52;;;8.07;;
18520;SDS011;9390;51.244;6.982;2023-04-03T01:59:01;19.77;;;9.40;;
18520;SDS011;9390;51.244;6.982;2023-04-03T02:01:32;17.23;;;8.43;;
18520;SDS011;9390;51.244;6.982;2023-04-03T02:04:05;17.63;;;8.73;;
18520;SDS011;9390;51.244;6.982;2023-04-03T02:06:37;23.75;;;9.13;;
18520;SDS011;9390;51.244;6.982;2023-04-03T02:09:08;20.92;;;8.48;;
18520;SDS011;9390;51.244;6.982;2023-04-03T02:11:39;14.77;;;8.27;;
18520;SDS011;9390;51.244;6.982;2023-04-03T02:14:11;18.73;;;9.00;;
18520;SDS011;9390;51.244;6.982;2023-04-03T02:16:42;19.85;;;8.77;;
18520;SDS011;9390;51.244;6.982;2023-04-03T02:19:15;21.77;;;9.82;;
18520;SDS011;9390;51.244;6.982;2023-04-03T02:21:46;17.10;;;8.93;;
18520;SDS011;9390;51.244;6.982;2023-04-03T02:24:18;17.25;;;9.15;;
18520;SDS011;9390;51.244;6.982;2023-04-03T02:26:49;15.23;;;7.53;;
18520;SDS011;9390;51.244;6.982;2023-04-03T02:29:21;13.70;;;7.85;;
18520;SDS011;9390;51.244;6.982;2023-04-03T02:31:52;21.05;;;8.55;;
18520;SDS011;9390;51.244;6.982;2023-04-03T02:34:25;21.45;;;8.80;;
18520;SDS011;9390;51.244;6.982;2023-04-03T02:36:56;20.17;;;9.80;;
18520;SDS011;9390;51.244;6.982;2023-04-03T02:39:27;20.95;;;10.30;;
18520;SDS011;9390;51.244;6.982;2023-04-03T02:41:59;24.23;;;10.65;;
18520;SDS011;9390;51.244;6.982;2023-04-03T02:44:30;17.48;;;8.93;;
18520;SDS011;9390;51.244;6.982;2023-04-03T02:47:02;17.55;;;8.63;;
18520;SDS011;9390;51.244;6.982;2023-04-03T02:49:34;18.17;;;8.38;;
18520;SDS011;9390;51.244;6.982;2023-04-03T02:52:06;16.17;;;6.88;;
18520;SDS011;9390;51.244;6.982;2023-04-03T02:54:37;13.68;;;7.30;;
18520;SDS011;9390;51.244;6.982;2023-04-03T02:57:09;13.50;;;7.10;;
18520;SDS011;9390;51.244;6.982;2023-04-03T02:59:40;13.85;;;7.10;;
18520;SDS011;9390;51.244;6.982;2023-04-03T03:02:11;15.75;;;7.97;;
18520;SDS011;9390;51.244;6.982;2023-04-03T03:04:44;13.20;;;6.70;;
18520;SDS011;9390;51.244;6.982;2023-04-03T03:07:15;14.77;;;6.60;;
18520;SDS011;9390;51.244;6.982;2023-04-03T03:09:47;14.02;;;6.35;;
18520;SDS011;9390;51.244;6.982;2023-04-03T03:12:18;14.38;;;6.50;;
18520;SDS011;9390;51.244;6.982;2023-04-03T03:17:22;15.93;;;7.05;;
18520;SDS011;9390;51.244;6.982;2023-04-03T03:19:55;15.82;;;7.53;;
18520;SDS011;9390;51.244;6.982;2023-04-03T03:22:27;17.77;;;7.18;;
18520;SDS011;9390;51.244;6.982;2023-04-03T03:24:59;12.95;;;6.10;;
18520;SDS011;9390;51.244;6.982;2023-04-03T03:27:30;12.27;;;5.80;;
18520;SDS011;9390;51.244;6.982;2023-04-03T03:30:02;14.38;;;6.43;;
18520;SDS011;9390;51.244;6.982;2023-04-03T03:32:34;13.32;;;6.50;;
18520;SDS011;9390;51.244;6.982;2023-04-03T03:35:07;12.63;;;6.03;;
18520;SDS011;9390;51.244;6.982;2023-04-03T03:37:39;14.07;;;5.97;;
18520;SDS011;9390;51.244;6.982;2023-04-03T03:40:10;13.63;;;6.38;;
18520;SDS011;9390;51.244;6.982;2023-04-03T03:42:43;11.18;;;5.90;;
18520;SDS011;9390;51.244;6.982;2023-04-03T03:45:14;12.85;;;5.65;;
18520;SDS011;9390;51.244;6.982;2023-04-03T03:47:45;13.60;;;5.80;;
18520;SDS011;9390;51.244;6.982;2023-04-03T03:50:18;13.00;;;6.07;;
18520;SDS011;9390;51.244;6.982;2023-04-03T03:52:50;11.10;;;5.57;;
18520;SDS011;9390;51.244;6.982;2023-04-03T03:55:21;12.68;;;5.50;;
18520;SDS011;9390;51.244;6.982;2023-04-03T03:57:53;10.68;;;5.05;;
18520;SDS011;9390;51.244;6.982;2023-04-03T04:00:27;13.38;;;5.43;;
18520;SDS011;9390;51.244;6.982;2023-04-03T04:02:58;13.45;;;4.93;;
18520;SDS011;9390;51.244;6.982;2023-04-03T04:05:32;11.50;;;5.53;;
18520;SDS011;9390;51.244;6.982;2023-04-03T04:08:03;11.07;;;4.70;;
18520;SDS011;9390;51.244;6.982;2023-04-03T04:10:34;9.75;;;4.78;;
18520;SDS011;9390;51.244;6.982;2023-04-03T04:13:06;13.45;;;5.60;;
18520;SDS011;9390;51.244;6.982;2023-04-03T04:15:38;15.32;;;5.18;;
18520;SDS011;9390;51.244;6.982;2023-04-03T04:18:10;9.68;;;4.90;;
18520;SDS011;9390;51.244;6.982;2023-04-03T04:20:43;11.60;;;4.55;;
18520;SDS011;9390;51.244;6.982;2023-04-03T04:23:16;9.70;;;4.65;;
18520;SDS011;9390;51.244;6.982;2023-04-03T04:25:47;12.07;;;4.97;;
18520;SDS011;9390;51.244;6.982;2023-04-03T04:28:19;13.80;;;5.20;;
18520;SDS011;9390;51.244;6.982;2023-04-03T04:30:51;11.88;;;4.93;;
18520;SDS011;9390;51.244;6.982;2023-04-03T04:33:22;14.00;;;4.97;;
18520;SDS011;9390;51.244;6.982;2023-04-03T04:35:55;12.38;;;4.82;;
18520;SDS011;9390;51.244;6.982;2023-04-03T04:38:26;11.00;;;4.72;;
18520;SDS011;9390;51.244;6.982;2023-04-03T04:40:57;10.98;;;4.93;;
18520;SDS011;9390;51.244;6.982;2023-04-03T04:43:29;11.63;;;5.28;;
18520;SDS011;9390;51.244;6.982;2023-04-03T04:46:01;13.88;;;4.78;;
18520;SDS011;9390;51.244;6.982;2023-04-03T04:48:34;10.50;;;4.82;;
18520;SDS011;9390;51.244;6.982;2023-04-03T04:51:07;11.52;;;5.18;;
18520;SDS011;9390;51.244;6.982;2023-04-03T04:53:38;14.80;;;5.88;;
18520;SDS011;9390;51.244;6.982;2023-04-03T04:56:10;10.20;;;4.88;;
18520;SDS011;9390;51.244;6.982;2023-04-03T04:58:41;13.40;;;5.05;;
18520;SDS011;9390;51.244;6.982;2023-04-03T05:01:13;10.75;;;4.43;;
18520;SDS011;9390;51.244;6.982;2023-04-03T05:03:44;12.82;;;5.10;;
18520;SDS011;9390;51.244;6.982;2023-04-03T05:06:17;9.45;;;4.53;;
18520;SDS011;9390;51.244;6.982;2023-04-03T05:08:48;11.50;;;5.00;;
18520;SDS011;9390;51.244;6.982;2023-04-03T05:11:19;13.40;;;6.28;;
18520;SDS011;9390;51.244;6.982;2023-04-03T05:13:51;10.57;;;4.75;;
18520;SDS011;9390;51.244;6.982;2023-04-03T05:16:22;14.30;;;5.53;;
18520;SDS011;9390;51.244;6.982;2023-04-03T05:18:54;12.10;;;5.15;;
18520;SDS011;9390;51.244;6.982;2023-04-03T05:21:26;12.23;;;5.15;;
18520;SDS011;9390;51.244;6.982;2023-04-03T05:24:01;13.40;;;4.97;;
18520;SDS011;9390;51.244;6.982;2023-04-03T05:26:33;20.38;;;6.28;;
18520;SDS011;9390;51.244;6.982;2023-04-03T05:29:04;35.28;;;14.23;;
18520;SDS011;9390;51.244;6.982;2023-04-03T05:31:36;24.75;;;9.90;;
18520;SDS011;9390;51.244;6.982;2023-04-03T05:34:07;23.38;;;8.63;;
18520;SDS011;9390;51.244;6.982;2023-04-03T05:36:40;17.45;;;7.13;;
18520;SDS011;9390;51.244;6.982;2023-04-03T05:39:11;13.32;;;5.20;;
18520;SDS011;9390;51.244;6.982;2023-04-03T05:41:43;10.48;;;4.95;;
18520;SDS011;9390;51.244;6.982;2023-04-03T05:44:14;14.88;;;4.97;;
18520;SDS011;9390;51.244;6.982;2023-04-03T05:46:46;14.93;;;5.32;;
18520;SDS011;9390;51.244;6.982;2023-04-03T05:49:17;13.45;;;5.15;;
18520;SDS011;9390;51.244;6.982;2023-04-03T05:51:50;10.82;;;4.68;;
18520;SDS011;9390;51.244;6.982;2023-04-03T05:54:23;8.73;;;4.50;;
18520;SDS011;9390;51.244;6.982;2023-04-03T05:56:56;13.93;;;5.65;;
18520;SDS011;9390;51.244;6.982;2023-04-03T05:59:27;15.73;;;4.40;;
18520;SDS011;9390;51.244;6.982;2023-04-03T06:01:58;10.75;;;4.40;;
18520;SDS011;9390;51.244;6.982;2023-04-03T06:04:31;10.70;;;5.03;;
18520;SDS011;9390;51.244;6.982;2023-04-03T06:07:03;19.25;;;4.85;;
18520;SDS011;9390;51.244;6.982;2023-04-03T06:09:35;22.30;;;5.97;;
18520;SDS011;9390;51.244;6.982;2023-04-03T06:12:06;16.58;;;5.63;;
18520;SDS011;9390;51.244;6.982;2023-04-03T06:14:38;21.23;;;6.55;;
18520;SDS011;9390;51.244;6.982;2023-04-03T06:17:09;17.70;;;6.13;;
18520;SDS011;9390;51.244;6.982;2023-04-03T06:19:42;13.93;;;4.05;;
18520;SDS011;9390;51.244;6.982;2023-04-03T06:22:14;10.77;;;4.95;;
18520;SDS011;9390;51.244;6.982;2023-04-03T06:24:46;10.88;;;4.50;;
18520;SDS011;9390;51.244;6.982;2023-04-03T06:27:17;12.52;;;4.47;;
18520;SDS011;9390;51.244;6.982;2023-04-03T06:29:49;10.23;;;3.33;;
18520;SDS011;9390;51.244;6.982;2023-04-03T06:32:20;8.30;;;3.63;;
18520;SDS011;9390;51.244;6.982;2023-04-03T06:34:51;10.45;;;3.25;;
18520;SDS011;9390;51.244;6.982;2023-04-03T06:37:24;14.55;;;3.67;;
18520;SDS011;9390;51.244;6.982;2023-04-03T06:39:58;17.50;;;5.53;;
18520;SDS011;9390;51.244;6.982;2023-04-03T06:42:30;13.65;;;3.25;;
18520;SDS011;9390;51.244;6.982;2023-04-03T06:45:02;12.27;;;3.33;;
18520;SDS011;9390;51.244;6.982;2023-04-03T06:47:33;6.75;;;2.63;;
18520;SDS011;9390;51.244;6.982;2023-04-03T06:50:05;8.65;;;2.83;;
18520;SDS011;9390;51.244;6.982;2023-04-03T06:52:40;12.70;;;3.15;;
18520;SDS011;9390;51.244;6.982;2023-04-03T06:55:11;9.23;;;4.35;;
18520;SDS011;9390;51.244;6.982;2023-04-03T06:57:43;7.38;;;2.00;;
18520;SDS011;9390;51.244;6.982;2023-04-03T07:00:14;9.65;;;2.35;;
18520;SDS011;9390;51.244;6.982;2023-04-03T07:02:46;15.07;;;3.10;;
18520;SDS011;9390;51.244;6.982;2023-04-03T07:05:18;8.60;;;3.15;;
18520;SDS011;9390;51.244;6.982;2023-04-03T07:07:51;9.90;;;2.53;;
18520;SDS011;9390;51.244;6.982;2023-04-03T07:10:22;8.35;;;2.47;;
18520;SDS011;9390;51.244;6.982;2023-04-03T07:12:53;8.00;;;2.60;;
18520;SDS011;9390;51.244;6.982;2023-04-03T07:15:25;9.23;;;2.90;;
18520;SDS011;9390;51.244;6.982;2023-04-03T07:17:56;9.63;;;3.30;;
18520;SDS011;9390;51.244;6.982;2023-04-03T07:20:28;10.38;;;2.92;;
18520;SDS011;9390;51.244;6.982;2023-04-03T07:23:00;6.97;;;2.72;;
18520;SDS011;9390;51.244;6.982;2023-04-03T07:25:32;11.05;;;3.00;;
18520;SDS011;9390;51.244;6.982;2023-04-03T07:28:03;7.22;;;2.53;;
18520;SDS011;9390;51.244;6.982;2023-04-03T07:30:35;9.13;;;3.13;;
18520;SDS011;9390;51.244;6.982;2023-04-03T07:33:14;8.55;;;2.95;;
18520;SDS011;9390;51.244;6.982;2023-04-03T07:35:46;7.20;;;2.47;;
18520;SDS011;9390;51.244;6.982;2023-04-03T07:38:19;10.05;;;2.90;;
18520;SDS011;9390;51.244;6.982;2023-04-03T07:40:50;7.32;;;2.55;;
18520;SDS011;9390;51.244;6.982;2023-04-03T07:43:23;16.13;;;2.72;;
18520;SDS011;9390;51.244;6.982;2023-04-03T07:45:54;11.48;;;2.10;;
18520;SDS011;9390;51.244;6.982;2023-04-03T07:48:26;10.73;;;3.00;;
18520;SDS011;9390;51.244;6.982;2023-04-03T07:50:58;7.80;;;2.58;;
18520;SDS011;9390;51.244;6.982;2023-04-03T07:53:32;10.25;;;3.20;;
18520;SDS011;9390;51.244;6.982;2023-04-03T07:56:03;10.82;;;3.65;;
18520;SDS011;9390;51.244;6.982;2023-04-03T07:58:35;7.57;;;2.30;;
18520;SDS011;9390;51.244;6.982;2023-04-03T08:01:07;16.25;;;5.43;;
18520;SDS011;9390;51.244;6.982;2023-04-03T08:03:38;10.13;;;2.90;;
18520;SDS011;9390;51.244;6.982;2023-04-03T08:06:10;15.23;;;3.63;;
18520;SDS011;9390;51.244;6.982;2023-04-03T08:08:42;7.00;;;2.40;;
18520;SDS011;9390;51.244;6.982;2023-04-03T08:11:14;13.82;;;2.33;;
18520;SDS011;9390;51.244;6.982;2023-04-03T08:13:45;9.45;;;2.53;;
18520;SDS011;9390;51.244;6.982;2023-04-03T08:16:17;12.60;;;3.13;;
18520;SDS011;9390;51.244;6.982;2023-04-03T08:18:49;11.50;;;3.15;;
18520;SDS011;9390;51.244;6.982;2023-04-03T08:21:20;7.00;;;2.05;;
18520;SDS011;9390;51.244;6.982;2023-04-03T08:23:53;10.82;;;3.15;;
18520;SDS011;9390;51.244;6.982;2023-04-03T08:26:25;10.73;;;2.97;;
18520;SDS011;9390;51.244;6.982;2023-04-03T08:28:56;8.85;;;2.13;;
18520;SDS011;9390;51.244;6.982;2023-04-03T08:31:28;27.85;;;8.88;;
18520;SDS011;9390;51.244;6.982;2023-04-03T08:33:59;21.08;;;6.72;;
18520;SDS011;9390;51.244;6.982;2023-04-03T08:36:30;10.90;;;2.70;;
18520;SDS011;9390;51.244;6.982;2023-04-03T08:39:03;6.70;;;1.90;;
18520;SDS011;9390;51.244;6.982;2023-04-03T08:41:36;10.43;;;2.35;;
18520;SDS011;9390;51.244;6.982;2023-04-03T08:44:21;13.95;;;3.78;;
18520;SDS011;9390;51.244;6.982;2023-04-03T08:47:02;6.20;;;2.15;;
18520;SDS011;9390;51.244;6.982;2023-04-03T08:49:42;5.43;;;2.35;;
18520;SDS011;9390;51.244;6.982;2023-04-03T08:52:18;14.65;;;4.60;;
18520;SDS011;9390;51.244;6.982;2023-04-03T08:59:59;8.88;;;2.22;;
18520;SDS011;9390;51.244;6.982;2023-04-03T09:02:33;17.73;;;4.53;;
18520;SDS011;9390;51.244;6.982;2023-04-03T09:05:09;21.40;;;5.25;;
18520;SDS011;9390;51.244;6.982;2023-04-03T09:07:43;24.80;;;5.60;;
18520;SDS011;9390;51.244;6.982;2023-04-03T09:10:18;16.83;;;4.53;;
18520;SDS011;9390;51.244;6.982;2023-04-03T09:12:57;5.63;;;1.90;;
18520;SDS011;9390;51.244;6.982;2023-04-03T09:15:31;5.78;;;1.85;;
18520;SDS011;9390;51.244;6.982;2023-04-03T09:18:04;4.80;;;1.83;;
18520;SDS011;9390;51.244;6.982;2023-04-03T09:20:39;7.22;;;1.90;;
18520;SDS011;9390;51.244;6.982;2023-04-03T09:23:16;26.15;;;4.53;;
18520;SDS011;9390;51.244;6.982;2023-04-03T09:25:53;8.13;;;2.13;;
18520;SDS011;9390;51.244;6.982;2023-04-03T09:28:27;5.55;;;1.90;;
18520;SDS011;9390;51.244;6.982;2023-04-03T09:31:01;6.55;;;1.60;;
18520;SDS011;9390;51.244;6.982;2023-04-03T09:33:33;9.32;;;2.17;;
18520;SDS011;9390;51.244;6.982;2023-04-03T09:36:06;16.27;;;4.72;;
18520;SDS011;9390;51.244;6.982;2023-04-03T09:38:37;9.90;;;3.17;;
18520;SDS011;9390;51.244;6.982;2023-04-03T09:41:13;5.47;;;2.13;;
18520;SDS011;9390;51.244;6.982;2023-04-03T09:43:51;11.55;;;2.03;;
18520;SDS011;9390;51.244;6.982;2023-04-03T09:46:25;9.05;;;1.83;;
18520;SDS011;9390;51.244;6.982;2023-04-03T09:49:02;8.10;;;2.00;;
18520;SDS011;9390;51.244;6.982;2023-04-03T09:51:35;10.13;;;3.08;;
18520;SDS011;9390;51.244;6.982;2023-04-03T09:57:03;5.53;;;1.58;;
18520;SDS011;9390;51.244;6.982;2023-04-03T09:59:40;7.00;;;1.77;;
18520;SDS011;9390;51.244;6.982;2023-04-03T10:02:22;14.35;;;4.65;;
18520;SDS011;9390;51.244;6.982;2023-04-03T10:05:01;7.30;;;1.70;;
18520;SDS011;9390;51.244;6.982;2023-04-03T10:07:33;4.57;;;1.70;;
18520;SDS011;9390;51.244;6.982;2023-04-03T10:10:15;4.05;;;1.73;;
18520;SDS011;9390;51.244;6.982;2023-04-03T10:12:56;4.35;;;1.52;;
18520;SDS011;9390;51.244;6.982;2023-04-03T10:15:36;4.65;;;1.55;;
18520;SDS011;9390;51.244;6.982;2023-04-03T10:18:17;12.55;;;2.88;;
18520;SDS011;9390;51.244;6.982;2023-04-03T10:20:59;4.22;;;1.60;;
18520;SDS011;9390;51.244;6.982;2023-04-03T10:23:36;13.65;;;2.92;;
18520;SDS011;9390;51.244;6.982;2023-04-03T10:26:14;7.57;;;1.83;;
18520;SDS011;9390;51.244;6.982;2023-04-03T10:28:51;5.30;;;2.10;;
18520;SDS011;9390;51.244;6.982;2023-04-03T10:31:29;7.20;;;1.63;;
18520;SDS011;9390;51.244;6.982;2023-04-03T10:34:04;5.18;;;1.60;;
18520;SDS011;9390;51.244;6.982;2023-04-03T10:36:38;6.30;;;1.60;;
18520;SDS011;9390;51.244;6.982;2023-04-03T10:39:18;5.88;;;1.52;;
18520;SDS011;9390;51.244;6.982;2023-04-03T10:41:56;5.75;;;1.52;;
18520;SDS011;9390;51.244;6.982;2023-04-03T10:44:37;4.38;;;1.67;;
18520;SDS011;9390;51.244;6.982;2023-04-03T10:47:16;2.90;;;1.30;;
18520;SDS011;9390;51.244;6.982;2023-04-03T10:49:54;5.78;;;1.52;;
18520;SDS011;9390;51.244;6.982;2023-04-03T10:52:29;4.07;;;1.30;;
18520;SDS011;9390;51.244;6.982;2023-04-03T10:55:09;5.32;;;1.48;;
18520;SDS011;9390;51.244;6.982;2023-04-03T10:57:49;2.10;;;0.97;;
18520;SDS011;9390;51.244;6.982;2023-04-03T11:00:24;2.40;;;1.15;;
18520;SDS011;9390;51.244;6.982;2023-04-03T11:03:03;2.30;;;1.05;;
18520;SDS011;9390;51.244;6.982;2023-04-03T11:05:37;3.15;;;1.27;;
18520;SDS011;9390;51.244;6.982;2023-04-03T11:08:13;2.83;;;1.10;;
18520;SDS011;9390;51.244;6.982;2023-04-03T11:10:49;2.22;;;1.45;;
18520;SDS011;9390;51.244;6.982;2023-04-03T11:15:55;6.53;;;1.10;;
18520;SDS011;9390;51.244;6.982;2023-04-03T11:18:28;4.82;;;1.83;;
18520;SDS011;9390;51.244;6.982;2023-04-03T11:21:06;5.00;;;1.10;;
18520;SDS011;9390;51.244;6.982;2023-04-03T11:23:39;13.27;;;4.45;;
18520;SDS011;9390;51.244;6.982;2023-04-03T11:26:12;3.60;;;1.20;;
18520;SDS011;9390;51.244;6.982;2023-04-03T11:28:44;5.43;;;1.50;;
18520;SDS011;9390;51.244;6.982;2023-04-03T11:31:22;3.22;;;1.17;;
18520;SDS011;9390;51.244;6.982;2023-04-03T11:34:04;3.22;;;1.10;;
18520;SDS011;9390;51.244;6.982;2023-04-03T11:36:40;5.68;;;1.02;;
18520;SDS011;9390;51.244;6.982;2023-04-03T11:39:17;2.90;;;1.20;;
18520;SDS011;9390;51.244;6.982;2023-04-03T11:41:52;3.28;;;0.90;;
18520;SDS011;9390;51.244;6.982;2023-04-03T11:44:32;2.00;;;1.00;;
18520;SDS011;9390;51.244;6.982;2023-04-03T11:47:09;4.05;;;1.23;;
18520;SDS011;9390;51.244;6.982;2023-04-03T11:58:26;5.93;;;2.20;;
18520;SDS011;9390;51.244;6.982;2023-04-03T12:01:00;7.03;;;1.70;;
18520;SDS011;9390;51.244;6.982;2023-04-03T12:12:32;4.18;;;1.40;;
18520;SDS011;9390;51.244;6.982;2023-04-03T12:24:37;17.77;;;5.57;;
18520;SDS011;9390;51.244;6.982;2023-04-03T12:27:17;10.48;;;3.10;;
18520;SDS011;9390;51.244;6.982;2023-04-03T12:30:05;17.55;;;3.30;;
18520;SDS011;9390;51.244;6.982;2023-04-03T12:32:48;10.95;;;3.33;;
18520;SDS011;9390;51.244;6.982;2023-04-03T12:35:27;14.00;;;4.03;;
18520;SDS011;9390;51.244;6.982;2023-04-03T12:38:11;13.60;;;4.93;;
18520;SDS011;9390;51.244;6.982;2023-04-03T12:40:49;21.05;;;6.43;;
18520;SDS011;9390;51.244;6.982;2023-04-03T12:43:27;6.40;;;1.92;;
18520;SDS011;9390;51.244;6.982;2023-04-03T12:46:09;10.20;;;4.05;;
18520;SDS011;9390;51.244;6.982;2023-04-03T12:48:49;10.75;;;3.35;;
18520;SDS011;9390;51.244;6.982;2023-04-03T12:51:22;7.13;;;2.80;;
18520;SDS011;9390;51.244;6.982;2023-04-03T12:54:00;9.80;;;3.22;;
18520;SDS011;9390;51.244;6.982;2023-04-03T12:56:33;11.55;;;3.10;;
18520;SDS011;9390;51.244;6.982;2023-04-03T12:59:16;8.82;;;2.78;;
18520;SDS011;9390;51.244;6.982;2023-04-03T13:01:53;15.07;;;4.30;;
18520;SDS011;9390;51.244;6.982;2023-04-03T13:04:26;10.68;;;2.47;;
18520;SDS011;9390;51.244;6.982;2023-04-03T13:06:58;7.50;;;2.20;;
18520;SDS011;9390;51.244;6.982;2023-04-03T13:09:30;5.78;;;1.38;;
18520;SDS011;9390;51.244;6.982;2023-04-03T13:12:03;9.80;;;3.03;;
18520;SDS011;9390;51.244;6.982;2023-04-03T13:14:52;13.13;;;4.50;;
18520;SDS011;9390;51.244;6.982;2023-04-03T13:17:24;7.78;;;1.92;;
18520;SDS011;9390;51.244;6.982;2023-04-03T13:20:08;12.38;;;3.25;;
18520;SDS011;9390;51.244;6.982;2023-04-03T13:22:43;15.23;;;6.57;;
18520;SDS011;9390;51.244;6.982;2023-04-03T13:25:20;12.68;;;3.70;;
18520;SDS011;9390;51.244;6.982;2023-04-03T13:27:53;10.07;;;2.55;;
18520;SDS011;9390;51.244;6.982;2023-04-03T13:30:27;14.40;;;4.53;;
18520;SDS011;9390;51.244;6.982;2023-04-03T13:33:01;13.20;;;3.20;;
18520;SDS011;9390;51.244;6.982;2023-04-03T13:35:35;8.73;;;2.30;;
18520;SDS011;9390;51.244;6.982;2023-04-03T13:38:21;6.50;;;2.22;;
18520;SDS011;9390;51.244;6.982;2023-04-03T13:40:54;10.68;;;2.58;;
18520;SDS011;9390;51.244;6.982;2023-04-03T13:43:27;15.13;;;2.38;;
18520;SDS011;9390;51.244;6.982;2023-04-03T13:46:02;11.48;;;3.05;;
18520;SDS011;9390;51.244;6.982;2023-04-03T13:48:37;12.68;;;3.65;;
18520;SDS011;9390;51.244;6.982;2023-04-03T13:51:17;10.07;;;2.85;;
18520;SDS011;9390;51.244;6.982;2023-04-03T13:53:51;13.00;;;2.75;;
18520;SDS011;9390;51.244;6.982;2023-04-03T13:56:25;18.10;;;6.32;;
18520;SDS011;9390;51.244;6.982;2023-04-03T13:59:04;10.63;;;3.20;;
18520;SDS011;9390;51.244;6.982;2023-04-03T14:01:52;13.23;;;2.65;;
18520;SDS011;9390;51.244;6.982;2023-04-03T14:04:27;8.85;;;2.40;;
18520;SDS011;9390;51.244;6.982;2023-04-03T14:07:00;4.80;;;1.52;;
18520;SDS011;9390;51.244;6.982;2023-04-03T14:09:31;8.70;;;2.70;;
18520;SDS011;9390;51.244;6.982;2023-04-03T14:12:04;19.83;;;7.55;;
18520;SDS011;9390;51.244;6.982;2023-04-03T14:14:37;7.60;;;1.70;;
18520;SDS011;9390;51.244;6.982;2023-04-03T14:17:13;17.95;;;6.40;;
18520;SDS011;9390;51.244;6.982;2023-04-03T14:19:46;10.65;;;4.05;;
18520;SDS011;9390;51.244;6.982;2023-04-03T14:22:19;10.35;;;2.65;;
18520;SDS011;9390;51.244;6.982;2023-04-03T14:24:53;28.15;;;10.43;;
18520;SDS011;9390;51.244;6.982;2023-04-03T14:27:26;6.43;;;2.15;;
18520;SDS011;9390;51.244;6.982;2023-04-03T14:29:58;15.68;;;5.45;;
18520;SDS011;9390;51.244;6.982;2023-04-03T14:32:31;17.00;;;4.10;;
18520;SDS011;9390;51.244;6.982;2023-04-03T14:37:35;9.52;;;3.03;;
18520;SDS011;9390;51.244;6.982;2023-04-03T14:40:07;19.95;;;5.47;;
18520;SDS011;9390;51.244;6.982;2023-04-03T14:42:42;12.07;;;3.25;;
18520;SDS011;9390;51.244;6.982;2023-04-03T14:45:14;9.43;;;2.42;;
18520;SDS011;9390;51.244;6.982;2023-04-03T14:47:48;5.80;;;1.90;;
18520;SDS011;9390;51.244;6.982;2023-04-03T14:50:22;18.55;;;4.38;;
18520;SDS011;9390;51.244;6.982;2023-04-03T14:52:56;12.10;;;3.25;;
18520;SDS011;9390;51.244;6.982;2023-04-03T14:55:29;16.10;;;3.17;;
18520;SDS011;9390;51.244;6.982;2023-04-03T14:58:00;4.10;;;1.40;;
18520;SDS011;9390;51.244;6.982;2023-04-03T15:00:32;7.05;;;2.08;;
18520;SDS011;9390;51.244;6.982;2023-04-03T15:03:04;18.55;;;5.30;;
18520;SDS011;9390;51.244;6.982;2023-04-03T15:05:36;4.38;;;1.40;;
18520;SDS011;9390;51.244;6.982;2023-04-03T15:08:11;16.48;;;5.50;;
18520;SDS011;9390;51.244;6.982;2023-04-03T15:10:49;11.50;;;4.00;;
18520;SDS011;9390;51.244;6.982;2023-04-03T15:15:54;8.95;;;2.53;;
18520;SDS011;9390;51.244;6.982;2023-04-03T15:18:27;18.02;;;5.63;;
18520;SDS011;9390;51.244;6.982;2023-04-03T15:21:01;19.80;;;4.53;;
18520;SDS011;9390;51.244;6.982;2023-04-03T15:23:33;11.50;;;2.80;;
18520;SDS011;9390;51.244;6.982;2023-04-03T15:26:04;17.45;;;3.45;;
18520;SDS011;9390;51.244;6.982;2023-04-03T15:28:37;10.02;;;2.70;;
18520;SDS011;9390;51.244;6.982;2023-04-03T15:31:09;14.35;;;4.25;;
18520;SDS011;9390;51.244;6.982;2023-04-03T15:33:42;6.18;;;1.83;;
18520;SDS011;9390;51.244;6.982;2023-04-03T15:36:13;17.90;;;5.63;;
18520;SDS011;9390;51.244;6.982;2023-04-03T15:38:44;15.52;;;5.38;;
18520;SDS011;9390;51.244;6.982;2023-04-03T15:41:16;16.85;;;5.68;;
18520;SDS011;9390;51.244;6.982;2023-04-03T15:43:47;19.33;;;5.35;;
18520;SDS011;9390;51.244;6.982;2023-04-03T15:46:19;27.50;;;7.30;;
18520;SDS011;9390;51.244;6.982;2023-04-03T15:48:52;9.50;;;2.38;;
18520;SDS011;9390;51.244;6.982;2023-04-03T15:51:23;15.02;;;4.03;;
18520;SDS011;9390;51.244;6.982;2023-04-03T15:53:54;19.25;;;5.18;;
18520;SDS011;9390;51.244;6.982;2023-04-03T15:56:26;15.90;;;4.78;;
18520;SDS011;9390;51.244;6.982;2023-04-03T15:58:57;12.70;;;3.70;;
18520;SDS011;9390;51.244;6.982;2023-04-03T16:01:28;6.70;;;2.28;;
18520;SDS011;9390;51.244;6.982;2023-04-03T16:04:02;7.82;;;2.60;;
18520;SDS011;9390;51.244;6.982;2023-04-03T16:09:05;16.38;;;3.72;;
18520;SDS011;9390;51.244;6.982;2023-04-03T16:11:38;11.80;;;3.15;;
18520;SDS011;9390;51.244;6.982;2023-04-03T16:14:10;12.03;;;2.40;;
18520;SDS011;9390;51.244;6.982;2023-04-03T16:16:41;25.38;;;3.33;;
18520;SDS011;9390;51.244;6.982;2023-04-03T16:19:14;19.85;;;4.05;;
18520;SDS011;9390;51.244;6.982;2023-04-03T16:21:45;15.25;;;3.10;;
18520;SDS011;9390;51.244;6.982;2023-04-03T16:24:17;16.42;;;2.97;;